Main page
METAR-TAF:

METAR-TAF

Airports :

Bournemouth Airport

Bournemouth, England

latitude: 50-47N, longitude: 001-50W, elevation: 11 m

Current weather observation

The report was made 26 minutes ago, at 16:20 UTC
Wind 18 kt from the West/Southwest with gusts up to 31 kt
Temperature 10°C
Humidity 82%
Pressure 1022 hPa
Visibility 10 km or more
Broken clouds at a height of 2100 ft

METAR: EGHH 211620Z 24018G31KT 9999 BKN021 10/07 Q1022

Time: 16:46 (16:46 UTC)

Forecast

The report was made 2 hours and 48 minutes ago, at 13:58 UTC
Forecast valid from 21 at 15 UTC to 21 at 24 UTC
Wind 20 kt from the West/Southwest with gusts up to 30 kt
Visibility 10 km or more
Scattered clouds at a height of 2500 ft

TAF: EGHH 211358Z 2115/2124 25020G30KT 9999 SCT025

Weather observations and forecasts of more than 4000 airports (METAR and TAF reports).

The available stations are represented by yellow and red dots on the map.

Hover mouse over dot to see the name of the station.

Then click to see weather observations and forecasts.

To change the map : click on the green buttons with a black cross to zoom in, on the green button with a dash to zoom out, or on the green arrows for adjacent maps.


METAR-TAF: